Time;durP1;ratioP1;P1;durP2;ratioP2;P2;SDS_P1;SDS_P2;PMS_P1;PMS_P2;Temp;Humidity;BMP_temperature;BMP_pressure;BME280_temperature;BME280_humidity;BME280_pressure;Samples;Min_cycle;Max_cycle;Signal;HPM_P1;HPM_P2
2021/11/25 07:02:24;;;;;;;10.68;5.85;;;7.90;99.90;;;;;;6172916;23;20310;-82
2021/11/25 07:04:51;;;;;;;10.05;5.72;;;7.80;99.90;;;;;;6180587;23;20526;-83
2021/11/25 07:07:18;;;;;;;7.72;5.43;;;7.80;99.90;;;;;;6180138;23;20029;-83
2021/11/25 07:09:45;;;;;;;11.85;5.88;;;7.70;99.90;;;;;;6181031;23;20552;-82
2021/11/25 07:12:12;;;;;;;9.15;5.35;;;7.70;99.90;;;;;;6155227;23;20021;-82
2021/11/25 07:14:40;;;;;;;11.70;5.70;;;7.70;99.90;;;;;;6181821;23;20017;-82
2021/11/25 07:17:07;;;;;;;10.88;5.82;;;7.70;99.90;;;;;;6180644;23;20083;-82
2021/11/25 07:19:34;;;;;;;9.07;5.20;;;7.70;99.90;;;;;;6180860;23;20075;-82
2021/11/25 07:22:01;;;;;;;9.45;5.38;;;7.70;99.90;;;;;;6181738;23;20026;-83
2021/11/25 07:24:28;;;;;;;10.85;5.65;;;7.70;99.90;;;;;;6180280;23;20021;-83
2021/11/25 07:26:55;;;;;;;9.02;4.82;;;7.70;99.90;;;;;;6181090;23;20463;-83
2021/11/25 07:29:23;;;;;;;10.32;5.53;;;7.70;99.90;;;;;;6155160;23;20025;-83
2021/11/25 07:31:51;;;;;;;11.45;5.15;;;7.70;99.90;;;;;;6181145;23;20088;-84
2021/11/25 07:34:17;;;;;;;10.32;5.65;;;7.70;99.90;;;;;;6153146;23;20025;-83
2021/11/25 07:36:44;;;;;;;12.82;5.45;;;7.70;99.90;;;;;;6180351;23;20021;-83
2021/11/25 07:39:12;;;;;;;7.22;5.25;;;7.70;99.90;;;;;;6153860;23;20028;-84
2021/11/25 07:41:39;;;;;;;8.13;5.18;;;7.70;99.90;;;;;;6153838;23;20023;-83
2021/11/25 07:44:07;;;;;;;10.95;5.75;;;7.60;99.90;;;;;;6153449;23;20482;-83
2021/11/25 07:46:35;;;;;;;10.65;5.70;;;7.60;99.90;;;;;;6153911;23;20021;-83
2021/11/25 07:49:03;;;;;;;10.38;6.07;;;7.50;99.90;;;;;;6179826;23;20373;-84
2021/11/25 07:51:31;;;;;;;10.25;6.18;;;7.50;99.90;;;;;;6178241;23;20013;-83
2021/11/25 07:54:00;;;;;;;11.80;6.53;;;7.50;99.90;;;;;;6180495;23;20067;-84
2021/11/25 07:56:27;;;;;;;10.55;6.82;;;7.40;99.90;;;;;;6179269;23;20076;-84
2021/11/25 07:58:54;;;;;;;10.10;6.05;;;7.40;99.90;;;;;;6180242;23;20017;-84
2021/11/25 08:01:20;;;;;;;10.20;6.60;;;7.40;99.90;;;;;;6178551;23;20075;-83
2021/11/25 08:03:47;;;;;;;11.07;7.00;;;7.40;99.90;;;;;;6153858;23;20023;-84
2021/11/25 08:06:14;;;;;;;10.48;6.70;;;7.40;99.90;;;;;;6153359;23;20412;-84
2021/11/25 08:08:42;;;;;;;10.32;6.03;;;7.40;99.90;;;;;;6179965;23;20071;-84
2021/11/25 08:11:09;;;;;;;12.13;6.75;;;7.40;99.90;;;;;;6153125;23;20024;-83
2021/11/25 08:13:36;;;;;;;12.18;6.65;;;7.50;99.90;;;;;;6180144;23;20341;-83
2021/11/25 08:16:04;;;;;;;11.27;6.90;;;7.40;99.90;;;;;;6179159;23;20021;-84
2021/11/25 08:18:31;;;;;;;8.00;5.13;;;7.40;99.90;;;;;;6180116;23;20013;-84
2021/11/25 08:20:58;;;;;;;11.75;6.57;;;7.40;99.90;;;;;;6180189;23;20387;-84
2021/11/25 08:23:25;;;;;;;11.13;6.32;;;7.40;99.90;;;;;;6178365;23;20071;-84
2021/11/25 08:25:51;;;;;;;8.32;5.65;;;7.40;99.90;;;;;;6179938;23;20407;-83
2021/11/25 08:28:19;;;;;;;8.77;5.88;;;7.40;99.90;;;;;;6180665;23;20533;-83
2021/11/25 08:30:46;;;;;;;9.70;5.47;;;7.50;99.90;;;;;;6180671;23;20017;-83
2021/11/25 08:33:13;;;;;;;11.48;5.43;;;7.50;99.90;;;;;;6180117;23;20021;-84
2021/11/25 08:35:40;;;;;;;9.05;5.00;;;7.50;99.90;;;;;;6181166;23;20021;-83
2021/11/25 08:38:06;;;;;;;9.18;4.75;;;7.60;99.90;;;;;;6180585;23;20017;-84
2021/11/25 08:40:33;;;;;;;9.10;4.53;;;7.70;99.90;;;;;;6168228;23;20013;-83
2021/11/25 08:43:00;;;;;;;8.10;3.65;;;7.70;99.90;;;;;;6155824;23;20017;-83
2021/11/25 08:45:29;;;;;;;6.07;3.67;;;7.80;99.90;;;;;;6180268;23;20028;-85
2021/11/25 08:47:56;;;;;;;5.70;3.37;;;7.90;99.90;;;;;;6155333;23;20340;-83
2021/11/25 08:50:23;;;;;;;5.45;3.63;;;7.90;99.90;;;;;;6180494;23;20024;-83
2021/11/25 08:52:50;;;;;;;7.20;3.40;;;7.90;99.90;;;;;;6181169;23;20091;-84
2021/11/25 08:55:17;;;;;;;5.03;3.42;;;8.00;99.90;;;;;;6180118;23;20075;-83
2021/11/25 08:57:45;;;;;;;14.18;3.65;;;8.10;99.90;;;;;;6181355;23;20051;-84
2021/11/25 09:00:14;;;;;;;6.40;2.83;;;8.10;99.90;;;;;;6180396;23;20029;-83
2021/11/25 09:02:41;;;;;;;8.43;3.80;;;8.20;99.90;;;;;;6155362;23;20463;-84
2021/11/25 09:05:10;;;;;;;4.75;3.38;;;8.20;99.90;;;;;;6180097;23;20017;-83
2021/11/25 09:07:39;;;;;;;6.22;3.20;;;8.30;99.90;;;;;;6180812;23;20063;-84
2021/11/25 09:10:07;;;;;;;5.20;3.20;;;8.30;99.90;;;;;;6179689;23;20015;-84
2021/11/25 09:12:35;;;;;;;8.30;2.83;;;8.40;99.90;;;;;;6180902;23;20072;-83
2021/11/25 09:15:17;;;;;;;7.97;3.13;;;8.50;99.90;;;;;;6179591;23;20021;-84
2021/11/25 09:17:44;;;;;;;7.57;3.25;;;8.60;99.90;;;;;;6180732;23;20025;-84
2021/11/25 09:20:24;;;;;;;8.02;2.97;;;8.70;99.90;;;;;;6180519;23;20703;-84
2021/11/25 09:22:51;;;;;;;5.22;2.60;;;8.70;99.90;;;;;;6180746;23;20017;-83
2021/11/25 09:25:19;;;;;;;4.38;2.50;;;8.70;99.90;;;;;;6179842;23;20079;-83
2021/11/25 09:27:46;;;;;;;6.35;3.17;;;8.70;99.90;;;;;;6181541;23;20022;-83
2021/11/25 09:30:13;;;;;;;8.25;3.08;;;8.70;99.90;;;;;;6180011;23;20075;-85
2021/11/25 09:32:41;;;;;;;9.63;2.97;;;8.70;99.90;;;;;;6155274;23;20025;-84
2021/11/25 09:35:08;;;;;;;4.95;2.47;;;8.60;99.90;;;;;;6180137;23;20021;-82
2021/11/25 09:37:35;;;;;;;18.90;4.13;;;8.60;99.90;;;;;;6181614;23;20352;-84
2021/11/25 09:40:02;;;;;;;5.65;2.17;;;8.60;99.90;;;;;;6182437;23;20047;-83
2021/11/25 09:42:29;;;;;;;6.75;2.50;;;8.60;99.90;;;;;;6181931;23;20325;-84
2021/11/25 09:44:56;;;;;;;4.72;2.60;;;8.60;99.90;;;;;;6182704;23;20569;-84
2021/11/25 09:47:24;;;;;;;5.43;2.40;;;8.60;99.90;;;;;;6181949;23;20021;-83
2021/11/25 09:49:50;;;;;;;5.32;1.90;;;8.70;99.90;;;;;;6182348;23;20475;-83
2021/11/25 09:52:18;;;;;;;5.00;2.47;;;8.70;99.90;;;;;;6181419;23;20017;-83
2021/11/25 09:54:45;;;;;;;6.43;2.30;;;8.80;99.90;;;;;;6182572;23;20075;-83
2021/11/25 09:57:12;;;;;;;5.78;2.75;;;8.80;99.90;;;;;;6181546;23;20491;-84
2021/11/25 09:59:39;;;;;;;8.63;4.00;;;8.80;99.90;;;;;;6157052;23;20029;-83
2021/11/25 10:02:06;;;;;;;5.93;2.38;;;8.90;99.90;;;;;;6155104;23;20163;-83
2021/11/25 10:04:34;;;;;;;7.72;3.05;;;8.90;99.90;;;;;;6182125;23;20024;-81
2021/11/25 10:07:05;;;;;;;6.10;3.00;;;8.90;99.90;;;;;;6181736;23;20013;-82
2021/11/25 10:09:32;;;;;;;9.82;3.75;;;8.90;99.90;;;;;;6181779;23;20084;-83
2021/11/25 10:12:01;;;;;;;7.82;2.67;;;9.00;99.90;;;;;;6155908;23;20025;-83
2021/11/25 10:14:37;;;;;;;10.13;2.30;;;9.00;99.90;;;;;;6182417;23;20013;-84
2021/11/25 10:17:05;;;;;;;6.28;2.63;;;9.10;99.90;;;;;;6181544;23;20487;-83
2021/11/25 10:19:32;;;;;;;9.63;2.60;;;9.10;99.90;;;;;;6182056;23;20025;-83
2021/11/25 10:22:09;;;;;;;9.57;2.47;;;9.20;99.90;;;;;;6182061;23;20025;-83
2021/11/25 10:24:45;;;;;;;10.82;2.40;;;9.20;99.90;;;;;;6181825;23;20025;-84
2021/11/25 10:27:17;;;;;;;7.18;2.50;;;9.20;99.90;;;;;;6181099;23;20028;-83
2021/11/25 10:29:45;;;;;;;6.65;2.60;;;9.20;99.90;;;;;;6182154;23;20087;-83
2021/11/25 10:32:17;;;;;;;8.00;2.65;;;9.20;99.90;;;;;;6156153;23;20025;-84
2021/11/25 10:37:41;;;;;;;9.98;2.50;;;9.20;99.90;;;;;;6181461;23;20017;-83
2021/11/25 10:40:26;;;;;;;9.07;3.08;;;9.20;99.90;;;;;;6181582;23;20668;-83
2021/11/25 10:42:53;;;;;;;12.23;2.22;;;9.20;99.90;;;;;;6182164;23;20021;-83
2021/11/25 10:45:21;;;;;;;9.30;2.00;;;9.20;99.90;;;;;;6181264;23;20020;-83
2021/11/25 10:48:03;;;;;;;11.43;2.45;;;9.10;99.90;;;;;;6181930;23;20083;-83
2021/11/25 10:50:32;;;;;;;8.75;1.90;;;9.20;99.90;;;;;;6181972;23;20017;-83
2021/11/25 10:53:09;;;;;;;;;;;9.20;99.90;;;;;;6183260;23;20079;-83
2021/11/25 10:55:37;;;;;;;10.52;1.90;;;9.30;99.90;;;;;;6181582;23;19987;-83
2021/11/25 10:58:06;;;;;;;7.63;1.60;;;9.40;99.90;;;;;;6181514;23;20522;-84
2021/11/25 11:00:41;;;;;;;11.15;1.60;;;9.40;99.90;;;;;;6181613;23;20051;-84
2021/11/25 11:03:29;;;;;;;13.45;2.00;;;9.50;99.90;;;;;;6181203;23;20467;-82
2021/11/25 11:05:58;;;;;;;10.25;1.80;;;9.60;99.90;;;;;;6181937;23;20063;-83
2021/11/25 11:08:26;;;;;;;7.10;1.50;;;9.70;99.90;;;;;;6181120;23;20028;-84
2021/11/25 11:11:05;;;;;;;8.35;1.63;;;9.80;99.90;;;;;;6155844;23;20419;-82
2021/11/25 11:13:42;;;;;;;9.20;1.73;;;9.90;99.90;;;;;;6155292;23;20013;-82
2021/11/25 11:16:25;;;;;;;8.27;1.40;;;9.90;99.90;;;;;;6180603;23;20040;-83
2021/11/25 11:19:01;;;;;;;12.35;1.98;;;10.00;99.90;;;;;;6155761;23;20017;-83
2021/11/25 11:21:29;;;;;;;9.90;1.65;;;10.00;99.90;;;;;;6154684;23;20079;-82
2021/11/25 11:23:58;;;;;;;11.00;1.67;;;10.10;99.90;;;;;;6181509;23;20037;-83
2021/11/25 11:26:25;;;;;;;9.50;2.25;;;10.20;99.90;;;;;;6155076;23;20255;-83
2021/11/25 11:28:52;;;;;;;8.48;1.35;;;10.20;99.90;;;;;;6181712;23;20009;-84
2021/11/25 11:31:19;;;;;;;10.95;1.55;;;10.30;99.90;;;;;;6180380;23;20060;-83
2021/11/25 11:33:48;;;;;;;12.68;1.80;;;10.30;99.90;;;;;;6155550;23;20399;-83
2021/11/25 11:36:15;;;;;;;8.07;1.20;;;10.40;99.90;;;;;;6180691;23;20048;-82
2021/11/25 11:38:44;;;;;;;12.48;1.80;;;10.40;99.90;;;;;;6181329;23;20076;-83
2021/11/25 11:41:12;;;;;;;10.82;1.50;;;10.50;99.90;;;;;;6180375;23;20083;-82
2021/11/25 11:43:39;;;;;;;11.82;1.65;;;10.60;99.90;;;;;;6181413;23;20076;-83
2021/11/25 11:47:13;;;;;;;;;;;;;;;;;;;;;
2021/11/25 11:50:10;;;;;;;5.55;1.50;;;10.60;99.90;;;;;;5975036;23;20471;-86
2021/11/25 11:53:32;;;;;;;;;;;;;;;;;;;;;
2021/11/25 11:56:22;;;;;;;9.10;1.65;;;10.40;99.90;;;;;;5942340;24;20725;-84
2021/11/25 11:59:21;;;;;;;11.93;1.60;;;10.20;99.90;;;;;;5972528;24;20368;-87
2021/11/25 12:02:02;;;;;;;10.25;1.35;;;10.20;99.90;;;;;;5971409;24;20080;-87
2021/11/25 12:04:44;;;;;;;9.30;1.50;;;10.20;99.90;;;;;;5971591;24;20020;-86
2021/11/25 12:07:39;;;;;;;10.50;1.60;;;10.20;99.90;;;;;;5896946;24;20421;-85
2021/11/25 12:10:47;;;;;;;12.32;2.35;;;10.20;99.90;;;;;;5943615;24;20054;-84
2021/11/25 12:13:13;;;;;;;8.68;1.50;;;10.20;99.90;;;;;;5974122;24;20107;-87
2021/11/25 12:15:40;;;;;;;15.95;2.05;;;10.30;99.90;;;;;;5976347;24;20028;-85
2021/11/25 12:18:31;;;;;;;14.65;1.80;;;10.30;99.90;;;;;;5975896;24;20453;-85
2021/11/25 12:21:00;;;;;;;10.60;1.80;;;10.40;99.90;;;;;;5976998;24;20024;-84
2021/11/25 12:23:31;;;;;;;;;;;10.30;99.90;;;;;;5976131;24;20016;-83
2021/11/25 12:25:58;;;;;;;11.82;1.38;;;10.30;99.90;;;;;;6013186;23;19961;-86
2021/11/25 12:28:28;;;;;;;13.07;1.85;;;10.20;99.90;;;;;;6037453;23;20026;-85
2021/11/25 12:33:48;;;;;;;11.07;1.27;;;10.30;99.90;;;;;;6151892;23;20044;-83
2021/11/25 12:36:49;;;;;;;8.30;1.45;;;10.20;99.90;;;;;;6126017;23;20025;-86
2021/11/25 12:39:39;;;;;;;9.90;1.50;;;10.10;99.90;;;;;;6038303;23;20034;-84
2021/11/25 12:42:06;;;;;;;8.32;1.77;;;10.10;99.90;;;;;;6061064;23;20023;-83
2021/11/25 12:44:40;;;;;;;13.02;2.10;;;10.10;99.90;;;;;;6061482;23;20026;-84
2021/11/25 12:47:15;;;;;;;5.63;1.42;;;10.00;99.90;;;;;;6060661;23;20030;-85
2021/11/25 12:49:42;;;;;;;7.78;1.95;;;10.00;99.90;;;;;;6062749;23;20019;-86
2021/11/25 12:52:26;;;;;;;13.52;2.00;;;10.10;99.90;;;;;;6060620;23;20082;-85
2021/11/25 12:55:11;;;;;;;9.88;1.75;;;10.20;99.90;;;;;;6037906;23;20022;-83
2021/11/25 12:57:55;;;;;;;13.48;1.70;;;10.20;99.90;;;;;;6062233;23;20027;-84
2021/11/25 13:00:25;;;;;;;8.40;1.60;;;10.30;99.90;;;;;;6060714;23;20023;-85
2021/11/25 13:03:05;;;;;;;12.43;2.05;;;10.30;99.90;;;;;;6061514;23;20393;-84
2021/11/25 13:05:33;;;;;;;8.75;1.50;;;10.20;99.90;;;;;;6061005;23;20023;-85
2021/11/25 13:08:02;;;;;;;7.60;1.52;;;10.00;99.90;;;;;;6061871;23;20147;-84
2021/11/25 13:10:33;;;;;;;12.30;2.40;;;9.80;99.90;;;;;;6061268;23;20022;-85
2021/11/25 13:13:07;;;;;;;11.27;1.75;;;9.70;99.90;;;;;;6063833;23;20050;-83
2021/11/25 13:15:35;;;;;;;11.52;1.98;;;9.50;99.90;;;;;;6131037;23;20017;-83
2021/11/25 13:18:03;;;;;;;9.93;1.67;;;9.50;99.90;;;;;;6153640;23;20017;-86
2021/11/25 13:20:47;;;;;;;11.95;1.80;;;9.40;99.90;;;;;;6152032;23;20504;-84
2021/11/25 13:23:18;;;;;;;8.68;1.40;;;9.50;99.90;;;;;;6152519;23;20022;-84
2021/11/25 13:25:47;;;;;;;10.60;1.98;;;9.50;99.90;;;;;;6154331;23;20014;-86
2021/11/25 13:28:32;;;;;;;7.18;1.33;;;9.60;99.90;;;;;;6152479;23;20022;-84
2021/11/25 13:31:14;;;;;;;9.65;1.38;;;9.60;99.90;;;;;;6153867;23;20018;-83
2021/11/25 13:34:06;;;;;;;9.23;1.13;;;9.70;99.90;;;;;;6097883;23;20038;-86
2021/11/25 13:36:37;;;;;;;7.25;1.30;;;9.70;99.90;;;;;;6153245;23;20022;-85
2021/11/25 13:39:11;;;;;;;6.25;1.33;;;9.80;99.90;;;;;;6153240;23;20098;-84
2021/11/25 13:41:39;;;;;;;5.25;1.58;;;9.80;99.90;;;;;;6127755;23;20043;-83
2021/11/25 13:44:07;;;;;;;10.45;1.42;;;9.80;99.90;;;;;;6152284;23;20021;-85
2021/11/25 13:46:35;;;;;;;8.20;1.15;;;9.80;99.90;;;;;;6128670;23;20084;-83
2021/11/25 13:49:04;;;;;;;7.25;1.40;;;9.90;99.90;;;;;;6141700;23;20017;-86
2021/11/25 13:51:32;;;;;;;14.85;1.50;;;9.90;99.90;;;;;;6127404;23;20073;-86
2021/11/25 13:54:05;;;;;;;8.15;1.60;;;9.90;99.90;;;;;;6153355;23;20022;-84
2021/11/25 13:56:33;;;;;;;7.35;1.38;;;9.90;99.90;;;;;;6152900;23;20021;-84
2021/11/25 13:59:01;;;;;;;8.23;0.82;;;9.90;99.90;;;;;;6152710;23;20025;-83
2021/11/25 14:01:32;;;;;;;8.00;1.10;;;9.90;99.90;;;;;;6152173;23;20084;-84
2021/11/25 14:04:01;;;;;;;8.43;1.58;;;9.80;99.90;;;;;;6152941;23;20048;-86
2021/11/25 14:06:31;;;;;;;6.10;1.00;;;9.80;99.90;;;;;;6127140;23;20060;-85
2021/11/25 14:09:15;;;;;;;5.45;1.23;;;9.80;99.90;;;;;;6153595;23;20064;-84
2021/11/25 14:11:55;;;;;;;7.28;1.23;;;9.90;99.90;;;;;;6152038;23;20033;-86
2021/11/25 14:14:33;;;;;;;8.80;1.52;;;9.90;99.90;;;;;;6123335;23;20072;-84
2021/11/25 14:17:01;;;;;;;9.20;1.48;;;9.90;99.90;;;;;;6147677;23;21010;-84
2021/11/25 14:19:28;;;;;;;13.07;1.30;;;10.00;99.90;;;;;;6152473;23;20017;-87
2021/11/25 14:21:58;;;;;;;9.70;1.02;;;10.00;99.90;;;;;;6153129;23;20408;-85
2021/11/25 14:24:27;;;;;;;7.60;1.35;;;9.90;99.90;;;;;;6151794;23;20029;-84
2021/11/25 14:27:03;;;;;;;;;;;9.90;99.90;;;;;;6154294;23;20017;-86
2021/11/25 14:32:57;;;;;;;11.48;1.33;;;9.90;99.90;;;;;;6152574;23;20021;-83
2021/11/25 14:35:34;;;;;;;9.73;1.05;;;9.80;99.90;;;;;;6120747;23;20017;-85
2021/11/25 14:38:04;;;;;;;12.35;1.40;;;9.70;99.90;;;;;;6153495;23;20099;-85
2021/11/25 14:40:37;;;;;;;7.70;1.02;;;9.70;99.90;;;;;;6126582;23;20021;-86
2021/11/25 14:43:18;;;;;;;7.03;1.20;;;9.60;99.90;;;;;;6151600;23;20076;-83
2021/11/25 14:45:47;;;;;;;8.95;1.10;;;9.50;99.90;;;;;;6153014;23;20021;-83
2021/11/25 14:48:30;;;;;;;6.95;1.10;;;9.40;99.90;;;;;;6152435;23;20018;-85
2021/11/25 14:51:04;;;;;;;9.63;1.67;;;9.30;99.90;;;;;;6153031;23;20020;-85
2021/11/25 14:53:47;;;;;;;7.05;1.35;;;9.30;99.90;;;;;;6152158;23;20017;-85
2021/11/25 14:56:25;;;;;;;9.00;1.42;;;9.30;99.90;;;;;;6151814;23;20017;-85
2021/11/25 14:59:00;;;;;;;8.13;1.00;;;9.20;99.90;;;;;;6152917;23;20021;-86
2021/11/25 15:01:39;;;;;;;7.95;0.95;;;9.20;99.90;;;;;;6151386;23;20245;-84
2021/11/25 15:04:11;;;;;;;6.97;1.33;;;9.20;99.90;;;;;;6152311;23;20365;-86
2021/11/25 15:06:40;;;;;;;8.25;1.00;;;9.20;99.90;;;;;;6152861;23;20018;-83
2021/11/25 15:09:12;;;;;;;8.75;1.25;;;9.20;99.90;;;;;;6152348;23;20095;-85
2021/11/25 15:11:40;;;;;;;6.65;1.35;;;9.20;99.90;;;;;;6153187;23;20014;-86
2021/11/25 15:14:10;;;;;;;12.55;1.50;;;9.20;99.90;;;;;;6126685;23;20342;-86
2021/11/25 15:16:39;;;;;;;9.82;1.25;;;9.20;99.90;;;;;;6153122;23;20029;-87
2021/11/25 15:19:07;;;;;;;10.40;1.40;;;9.20;99.90;;;;;;6126610;23;20017;-85
2021/11/25 15:21:37;;;;;;;13.57;1.33;;;9.20;99.90;;;;;;6127029;23;20017;-84
2021/11/25 15:24:05;;;;;;;10.32;1.38;;;9.20;99.90;;;;;;6152687;23;20013;-85
2021/11/25 15:26:34;;;;;;;14.25;1.23;;;9.20;99.90;;;;;;6126615;23;20025;-86
2021/11/25 15:29:04;;;;;;;9.73;1.70;;;9.30;99.90;;;;;;6152976;23;20033;-86
2021/11/25 15:31:42;;;;;;;10.18;1.52;;;9.30;99.90;;;;;;6153039;23;20014;-86
2021/11/25 15:34:10;;;;;;;7.78;1.00;;;9.40;99.90;;;;;;6126758;23;20057;-85
2021/11/25 15:36:37;;;;;;;7.90;1.23;;;9.40;99.90;;;;;;6152574;23;20021;-86
2021/11/25 15:39:06;;;;;;;9.45;1.20;;;9.40;99.90;;;;;;6125683;23;20076;-85
2021/11/25 15:41:37;;;;;;;6.05;1.05;;;9.40;99.90;;;;;;6152346;23;20037;-84
2021/11/25 15:44:04;;;;;;;8.02;1.25;;;9.40;99.90;;;;;;6151996;23;20064;-83
2021/11/25 15:46:31;;;;;;;12.77;1.23;;;9.40;99.90;;;;;;6127165;23;20017;-85
2021/11/25 15:48:58;;;;;;;7.38;1.10;;;9.30;99.90;;;;;;6152816;23;20089;-85
2021/11/25 15:51:25;;;;;;;11.25;1.65;;;9.30;99.90;;;;;;6150940;23;20056;-86
2021/11/25 15:53:52;;;;;;;8.40;1.45;;;9.10;99.90;;;;;;6126552;23;20024;-83
2021/11/25 15:56:19;;;;;;;6.45;1.55;;;9.10;99.90;;;;;;6152553;23;20075;-83
2021/11/25 15:58:46;;;;;;;9.88;1.20;;;8.90;99.90;;;;;;6126454;23;20053;-85
2021/11/25 16:01:13;;;;;;;6.72;1.40;;;8.90;99.90;;;;;;6125330;23;20036;-85
2021/11/25 16:03:42;;;;;;;7.45;1.75;;;8.80;99.90;;;;;;6126926;23;20037;-86
2021/11/25 16:06:09;;;;;;;10.38;1.50;;;8.70;99.90;;;;;;6126754;23;20464;-86
2021/11/25 16:08:37;;;;;;;5.85;1.67;;;8.60;99.90;;;;;;6152882;23;20072;-85
2021/11/25 16:11:04;;;;;;;9.27;1.50;;;8.60;99.90;;;;;;6151555;23;20512;-84
2021/11/25 16:13:40;;;;;;;11.48;2.85;;;8.50;99.90;;;;;;6126542;23;20253;-86
2021/11/25 16:16:07;;;;;;;10.32;1.92;;;8.40;99.90;;;;;;6151505;23;20076;-86
2021/11/25 16:18:35;;;;;;;12.88;2.55;;;8.40;99.90;;;;;;6126663;23;20065;-85
2021/11/25 16:21:02;;;;;;;7.07;1.27;;;8.30;99.90;;;;;;6152158;23;20021;-83
2021/11/25 16:23:29;;;;;;;7.85;1.30;;;8.20;99.90;;;;;;6151606;23;20027;-85
2021/11/25 16:25:57;;;;;;;6.53;1.00;;;8.20;99.90;;;;;;6152521;23;20024;-83
2021/11/25 16:28:25;;;;;;;8.45;1.42;;;8.10;99.90;;;;;;6151511;23;20018;-84
2021/11/25 16:30:52;;;;;;;5.55;1.00;;;8.10;99.90;;;;;;6151786;23;20075;-85
2021/11/25 16:33:22;;;;;;;10.35;1.48;;;8.00;99.90;;;;;;6150805;23;20033;-82
2021/11/25 16:35:49;;;;;;;9.18;1.00;;;8.00;99.90;;;;;;6151750;23;20024;-85
2021/11/25 16:38:16;;;;;;;6.22;1.55;;;7.90;99.90;;;;;;6151326;23;20072;-84
2021/11/25 16:40:47;;;;;;;8.23;1.10;;;7.90;99.90;;;;;;6152255;23;20088;-85
2021/11/25 16:43:14;;;;;;;8.80;0.98;;;7.80;99.90;;;;;;6151201;23;20017;-85
2021/11/25 16:45:41;;;;;;;8.45;1.00;;;7.70;99.90;;;;;;6152090;23;20029;-84
2021/11/25 16:48:42;;;;;;;9.98;1.15;;;7.70;99.90;;;;;;6151599;23;20061;-84
2021/11/25 16:51:14;;;;;;;8.18;1.40;;;7.70;99.90;;;;;;6149637;23;20087;-84
2021/11/25 16:53:44;;;;;;;9.18;2.00;;;7.60;99.90;;;;;;6151542;23;20025;-85
2021/11/25 16:56:12;;;;;;;11.88;1.55;;;7.60;99.90;;;;;;6151606;23;20072;-84
2021/11/25 16:58:40;;;;;;;10.38;2.17;;;7.50;99.90;;;;;;6151592;23;20013;-84
2021/11/25 17:01:09;;;;;;;7.55;2.45;;;7.50;99.90;;;;;;6125477;23;20025;-83
2021/11/25 17:03:36;;;;;;;;;;;7.40;99.90;;;;;;6126844;23;20402;-84
2021/11/25 17:06:04;;;;;;;13.23;2.75;;;7.40;99.90;;;;;;6151678;23;19917;-83
2021/11/25 17:08:33;;;;;;;8.32;3.15;;;7.30;99.90;;;;;;6151550;23;20013;-83
2021/11/25 17:11:01;;;;;;;11.40;2.85;;;7.20;99.90;;;;;;6151704;23;20021;-84
2021/11/25 17:13:30;;;;;;;10.00;2.23;;;7.20;99.90;;;;;;6149350;23;20041;-84
2021/11/25 17:15:59;;;;;;;20.45;7.63;;;7.20;99.90;;;;;;6151154;23;20245;-84
2021/11/25 17:18:30;;;;;;;10.30;2.03;;;7.20;99.90;;;;;;6125847;23;20072;-85
2021/11/25 17:20:58;;;;;;;10.70;1.85;;;7.10;99.90;;;;;;6126724;23;20021;-85
2021/11/25 17:23:25;;;;;;;7.95;2.47;;;7.00;99.90;;;;;;6151511;23;20017;-85
2021/11/25 17:25:52;;;;;;;12.27;1.35;;;7.00;99.90;;;;;;6126411;23;20025;-85
2021/11/25 17:28:19;;;;;;;10.35;1.80;;;6.90;99.90;;;;;;6125698;23;20072;-84
2021/11/25 17:30:46;;;;;;;7.97;1.75;;;6.90;99.90;;;;;;6126606;23;20399;-84
2021/11/25 17:33:13;;;;;;;8.35;2.28;;;6.80;99.90;;;;;;6150907;23;20041;-84
2021/11/25 17:35:42;;;;;;;11.40;2.88;;;6.80;99.90;;;;;;6150616;23;20018;-82
2021/11/25 17:38:09;;;;;;;12.05;1.92;;;6.80;99.90;;;;;;6149947;23;20021;-85
2021/11/25 17:40:36;;;;;;;8.23;2.60;;;6.70;99.90;;;;;;6151795;23;20022;-85
2021/11/25 17:43:06;;;;;;;11.40;2.25;;;6.60;99.90;;;;;;6150488;23;20013;-85
2021/11/25 17:45:35;;;;;;;9.20;1.92;;;6.60;99.90;;;;;;6150514;23;20021;-83
2021/11/25 17:48:02;;;;;;;;;;;6.50;99.90;;;;;;6151327;23;20624;-86
2021/11/25 17:50:32;;;;;;;8.13;1.75;;;6.50;99.90;;;;;;6124723;23;19921;-83
2021/11/25 17:53:01;;;;;;;7.65;1.75;;;6.40;99.90;;;;;;6150938;23;20036;-83
2021/11/25 17:55:29;;;;;;;10.18;2.00;;;6.40;99.90;;;;;;6150120;23;20365;-85
2021/11/25 17:57:56;;;;;;;9.50;2.50;;;6.30;99.90;;;;;;6152808;23;20018;-84
2021/11/25 18:00:24;;;;;;;12.68;2.30;;;6.30;99.90;;;;;;6126597;23;20100;-85
2021/11/25 18:02:52;;;;;;;5.80;1.95;;;6.20;99.90;;;;;;6127339;23;20464;-83
2021/11/25 18:05:20;;;;;;;9.20;2.20;;;6.20;99.90;;;;;;6152508;23;20397;-85
2021/11/25 18:07:47;;;;;;;8.63;2.28;;;6.10;99.90;;;;;;6152963;23;20092;-83
2021/11/25 18:10:16;;;;;;;6.18;2.22;;;6.10;99.90;;;;;;6151146;23;20026;-82
2021/11/25 18:12:45;;;;;;;15.55;2.13;;;6.00;99.90;;;;;;6151651;23;20096;-82
2021/11/25 18:15:12;;;;;;;9.50;2.25;;;6.00;99.90;;;;;;6151146;23;20025;-82
2021/11/25 18:17:40;;;;;;;14.05;2.00;;;6.00;99.90;;;;;;6151853;23;20061;-82
2021/11/25 18:20:07;;;;;;;9.57;2.15;;;5.90;99.90;;;;;;6125551;23;20030;-82
2021/11/25 18:22:41;;;;;;;8.68;2.20;;;5.90;99.90;;;;;;6152454;23;20491;-82
2021/11/25 18:25:08;;;;;;;8.50;3.08;;;5.90;99.90;;;;;;6151561;23;20022;-83
2021/11/25 18:27:35;;;;;;;10.27;2.50;;;5.80;99.90;;;;;;6151650;23;20018;-84
2021/11/25 18:30:04;;;;;;;6.82;2.60;;;5.80;99.90;;;;;;6127348;23;20032;-83
2021/11/25 18:32:55;;;;;;;14.38;3.08;;;5.80;99.90;;;;;;6094099;23;20067;-83
2021/11/25 18:35:23;;;;;;;12.32;3.17;;;5.70;99.90;;;;;;6116083;23;20053;-83
2021/11/25 18:37:50;;;;;;;10.93;3.65;;;5.70;99.90;;;;;;6146880;23;20032;-83
2021/11/25 18:40:19;;;;;;;12.35;2.75;;;5.60;99.90;;;;;;6147580;23;20029;-86
2021/11/25 18:43:02;;;;;;;10.63;2.83;;;5.60;99.90;;;;;;6076867;23;20862;-84
2021/11/25 18:45:34;;;;;;;8.57;3.00;;;5.60;99.90;;;;;;6079467;23;20021;-84
2021/11/25 18:48:04;;;;;;;11.50;3.92;;;5.50;99.90;;;;;;6148046;23;20487;-82
2021/11/25 18:50:56;;;;;;;13.55;3.03;;;5.50;99.90;;;;;;6036027;23;20019;-85
2021/11/25 18:53:29;;;;;;;10.57;4.20;;;5.50;99.90;;;;;;6031424;23;20134;-84
2021/11/25 18:55:59;;;;;;;13.80;3.78;;;5.50;99.90;;;;;;6026297;23;20014;-85
2021/11/25 18:59:15;;;;;;;16.23;3.25;;;5.40;99.90;;;;;;6044219;23;20018;-88
2021/11/25 19:02:33;;;;;;;20.97;3.50;;;5.50;99.90;;;;;;5986036;23;20471;-85
2021/11/25 19:08:47;;;;;;;10.98;2.92;;;5.50;99.90;;;;;;5902250;23;20062;-85
2021/11/25 19:11:17;;;;;;;15.52;3.38;;;5.60;99.90;;;;;;6000141;23;20032;-84
2021/11/25 19:13:44;;;;;;;10.00;3.15;;;5.60;99.90;;;;;;5976580;23;20028;-85
2021/11/25 19:16:14;;;;;;;13.32;3.17;;;5.70;99.90;;;;;;5998557;23;20526;-85
2021/11/25 19:18:41;;;;;;;7.72;2.60;;;5.70;99.90;;;;;;5998940;23;20512;-85
2021/11/25 19:21:08;;;;;;;10.30;2.20;;;5.70;99.90;;;;;;5974859;23;20440;-85
2021/11/25 19:23:36;;;;;;;14.00;2.88;;;5.70;99.90;;;;;;5962659;23;20020;-82
2021/11/25 19:26:03;;;;;;;8.65;2.45;;;5.70;99.90;;;;;;5963149;23;20030;-84
2021/11/25 19:28:33;;;;;;;7.90;2.80;;;5.70;99.90;;;;;;6037225;23;20047;-84
2021/11/25 19:31:02;;;;;;;13.82;2.45;;;5.70;99.90;;;;;;6054917;23;20409;-85
2021/11/25 19:33:30;;;;;;;10.88;3.10;;;5.70;99.90;;;;;;6013405;23;20051;-85
2021/11/25 19:35:58;;;;;;;9.88;2.85;;;5.70;99.90;;;;;;6048518;23;20019;-83
2021/11/25 19:38:26;;;;;;;11.82;2.75;;;5.60;99.90;;;;;;6064060;23;20356;-81
2021/11/25 19:40:54;;;;;;;8.00;2.47;;;5.60;99.90;;;;;;6145427;23;20068;-82
2021/11/25 19:43:22;;;;;;;12.45;3.05;;;5.60;99.90;;;;;;6144856;23;20409;-83
2021/11/25 19:45:49;;;;;;;8.13;2.28;;;5.60;99.90;;;;;;6119487;23;20071;-83
2021/11/25 19:48:17;;;;;;;5.32;2.05;;;5.60;99.90;;;;;;6146129;23;20029;-82
2021/11/25 19:50:45;;;;;;;13.88;3.05;;;5.60;99.90;;;;;;6120764;23;20017;-84
2021/11/25 19:53:13;;;;;;;12.00;4.00;;;5.70;99.90;;;;;;6119012;23;20029;-83
2021/11/25 19:55:40;;;;;;;10.98;4.40;;;5.70;99.90;;;;;;6121186;23;20405;-83
2021/11/25 19:58:07;;;;;;;8.68;3.13;;;5.80;99.90;;;;;;6119883;23;20029;-81
2021/11/25 20:00:38;;;;;;;13.23;2.28;;;5.80;99.90;;;;;;6120995;23;20044;-82
2021/11/25 20:03:06;;;;;;;13.30;2.05;;;5.80;99.90;;;;;;6119894;23;20092;-82
2021/11/25 20:05:34;;;;;;;7.43;2.00;;;5.80;99.90;;;;;;6120318;23;20018;-82
2021/11/25 20:08:02;;;;;;;10.38;2.63;;;5.80;99.90;;;;;;6144776;23;20080;-84
2021/11/25 20:10:29;;;;;;;8.07;1.88;;;5.80;99.90;;;;;;6145403;23;20033;-81
2021/11/25 20:12:59;;;;;;;10.57;1.70;;;5.90;99.90;;;;;;6120683;23;20472;-81
2021/11/25 20:15:32;;;;;;;9.35;1.77;;;5.90;99.90;;;;;;6145018;23;20550;-83
2021/11/25 20:18:01;;;;;;;8.15;1.52;;;5.90;99.90;;;;;;6146212;23;20340;-81
2021/11/25 20:20:28;;;;;;;;;;;5.90;99.90;;;;;;6120034;23;20036;-84
2021/11/25 20:23:01;;;;;;;9.13;1.45;;;5.90;99.90;;;;;;6119811;23;19924;-81
2021/11/25 20:25:29;;;;;;;8.32;2.85;;;5.90;99.90;;;;;;6145147;23;20365;-84
2021/11/25 20:27:57;;;;;;;10.52;2.65;;;6.00;99.90;;;;;;6145649;23;20029;-82
2021/11/25 20:30:25;;;;;;;9.77;2.70;;;6.00;99.90;;;;;;6145243;23;20029;-83